createdAt,value
2023-03-19T00:00:31.295Z,48.50
2023-03-19T00:02:58.010Z,48.45
2023-03-19T00:05:24.768Z,48.68
2023-03-19T00:07:51.435Z,48.25
2023-03-19T00:10:18.198Z,48.59
2023-03-19T00:12:44.767Z,48.11
2023-03-19T00:15:14.327Z,48.24
2023-03-19T00:17:42.038Z,48.51
2023-03-19T00:20:09.842Z,48.35
2023-03-19T00:22:36.568Z,48.63
2023-03-19T00:25:03.767Z,48.32
2023-03-19T00:27:30.627Z,48.16
2023-03-19T00:29:57.240Z,48.13
2023-03-19T00:32:23.767Z,48.32
2023-03-19T00:34:50.966Z,48.33
2023-03-19T00:37:18.254Z,48.48
2023-03-19T00:39:44.877Z,48.21
2023-03-19T00:42:12.009Z,48.49
2023-03-19T00:44:38.605Z,48.55
2023-03-19T00:47:06.931Z,48.32
2023-03-19T00:49:33.531Z,49.04
2023-03-19T00:52:00.137Z,48.29
2023-03-19T00:54:27.507Z,48.35
2023-03-19T00:56:54.116Z,48.30
2023-03-19T00:59:20.685Z,48.33
2023-03-19T01:01:47.316Z,48.54
2023-03-19T01:04:16.827Z,48.51
2023-03-19T01:06:43.943Z,48.41
2023-03-19T01:09:10.641Z,48.38
2023-03-19T01:11:37.228Z,48.61
2023-03-19T01:14:03.911Z,48.35
2023-03-19T01:16:30.725Z,48.56
2023-03-19T01:18:57.332Z,48.62
2023-03-19T01:21:23.888Z,48.28
2023-03-19T01:23:51.966Z,48.47
2023-03-19T01:26:18.831Z,48.41
2023-03-19T01:28:45.569Z,48.42
2023-03-19T01:31:12.141Z,48.52
2023-03-19T01:33:39.390Z,48.47
2023-03-19T01:36:06.398Z,48.36
2023-03-19T01:38:32.963Z,48.24
2023-03-19T01:40:59.550Z,48.34
2023-03-19T01:43:27.489Z,48.45
2023-03-19T01:45:59.178Z,48.58
2023-03-19T01:48:28.251Z,48.38
2023-03-19T01:50:56.051Z,48.40
2023-03-19T01:53:25.842Z,48.46
2023-03-19T01:55:54.750Z,48.57
2023-03-19T01:58:21.381Z,48.24
2023-03-19T02:00:48.382Z,48.96
2023-03-19T02:03:14.963Z,47.93
2023-03-19T02:05:41.736Z,48.51
2023-03-19T02:08:10.955Z,48.49
2023-03-19T02:10:37.585Z,48.35
2023-03-19T02:13:04.451Z,48.52
2023-03-19T02:15:31.168Z,48.75
2023-03-19T02:17:57.777Z,48.54
2023-03-19T02:20:33.130Z,48.50
2023-03-19T02:23:21.744Z,48.68
2023-03-19T02:25:48.271Z,48.57
2023-03-19T02:28:16.106Z,48.60
2023-03-19T02:30:43.209Z,48.49
2023-03-19T02:33:13.384Z,48.82
2023-03-19T02:35:39.966Z,48.55
2023-03-19T02:38:07.167Z,48.46
2023-03-19T02:40:39.092Z,48.58
2023-03-19T02:43:06.437Z,48.58
2023-03-19T02:45:33.000Z,48.63
2023-03-19T02:48:00.425Z,48.34
2023-03-19T02:50:27.508Z,48.32
2023-03-19T02:52:54.275Z,48.47
2023-03-19T02:55:21.473Z,48.33
2023-03-19T02:57:48.036Z,48.46
2023-03-19T03:00:17.128Z,48.47
2023-03-19T03:02:43.699Z,48.43
2023-03-19T03:05:10.262Z,48.53
2023-03-19T03:07:36.903Z,48.56
2023-03-19T03:10:03.555Z,48.38
2023-03-19T03:12:30.324Z,48.66
2023-03-19T03:14:57.205Z,48.41
2023-03-19T03:17:24.335Z,48.52
2023-03-19T03:19:51.036Z,48.49
2023-03-19T03:22:17.593Z,48.54
2023-03-19T03:24:44.196Z,48.45
2023-03-19T03:27:11.012Z,48.48
2023-03-19T03:29:37.557Z,48.39
2023-03-19T03:32:04.296Z,48.30
2023-03-19T03:34:30.862Z,48.60
2023-03-19T03:36:57.421Z,48.18
2023-03-19T03:39:24.275Z,48.63
2023-03-19T03:41:51.570Z,48.15
2023-03-19T03:44:18.281Z,48.33
2023-03-19T03:46:44.885Z,48.59
2023-03-19T03:49:11.537Z,48.51
2023-03-19T03:51:38.207Z,48.82
2023-03-19T03:54:04.715Z,48.37
2023-03-19T03:56:31.478Z,48.51
2023-03-19T03:58:58.034Z,48.51
2023-03-19T04:01:24.643Z,48.50
2023-03-19T04:03:51.218Z,48.37
2023-03-19T04:06:18.764Z,48.36
2023-03-19T04:08:45.297Z,48.61
2023-03-19T04:11:11.930Z,48.18
2023-03-19T04:13:38.546Z,48.47
2023-03-19T04:16:05.791Z,48.62
2023-03-19T04:18:32.475Z,48.37
2023-03-19T04:20:59.019Z,48.22
2023-03-19T04:23:25.731Z,48.46
2023-03-19T04:25:52.382Z,48.37
2023-03-19T04:28:19.021Z,48.46
2023-03-19T04:30:45.647Z,48.28
2023-03-19T04:33:13.106Z,48.42
2023-03-19T04:35:39.678Z,48.64
2023-03-19T04:38:06.239Z,48.52
2023-03-19T04:40:33.319Z,48.64
2023-03-19T04:43:00.004Z,48.53
2023-03-19T04:45:27.041Z,48.51
2023-03-19T04:47:53.981Z,48.48
2023-03-19T04:50:20.552Z,48.45
2023-03-19T04:52:47.101Z,48.24
2023-03-19T04:55:13.687Z,48.28
2023-03-19T04:57:41.030Z,48.49
2023-03-19T05:00:08.853Z,48.42
2023-03-19T05:02:35.757Z,48.25
2023-03-19T05:05:02.432Z,49.05
2023-03-19T05:07:28.923Z,48.87
2023-03-19T05:09:55.736Z,48.60
2023-03-19T05:12:22.328Z,48.25
2023-03-19T05:14:48.875Z,48.43
2023-03-19T05:17:15.672Z,48.66
2023-03-19T05:19:42.336Z,48.40
2023-03-19T05:22:08.950Z,48.93
2023-03-19T05:24:36.181Z,48.49
2023-03-19T05:27:02.821Z,48.50
2023-03-19T05:29:29.435Z,48.68
2023-03-19T05:31:56.351Z,48.60
2023-03-19T05:34:23.494Z,48.50
2023-03-19T05:36:50.147Z,48.54
2023-03-19T05:39:16.759Z,48.42
2023-03-19T05:41:43.279Z,48.21
2023-03-19T05:44:09.805Z,48.45
2023-03-19T05:46:36.501Z,48.48
2023-03-19T05:49:03.319Z,48.55
2023-03-19T05:51:29.946Z,48.65
2023-03-19T05:53:56.487Z,48.94
2023-03-19T05:56:23.092Z,48.30
2023-03-19T05:58:49.632Z,48.47
2023-03-19T06:01:16.323Z,48.45
2023-03-19T06:03:42.926Z,48.48
2023-03-19T06:06:12.094Z,48.75
2023-03-19T06:08:38.690Z,48.73
2023-03-19T06:11:05.310Z,48.83
2023-03-19T06:13:31.901Z,49.36
2023-03-19T06:15:58.684Z,48.97
2023-03-19T06:18:25.740Z,49.52
2023-03-19T06:20:52.950Z,48.89
2023-03-19T06:23:19.493Z,49.21
2023-03-19T06:25:46.202Z,49.32
2023-03-19T06:28:12.742Z,49.00
2023-03-19T06:30:39.317Z,49.28
2023-03-19T06:33:06.506Z,49.20
2023-03-19T06:35:33.089Z,49.19
2023-03-19T06:37:59.621Z,48.85
2023-03-19T06:40:26.215Z,48.84
2023-03-19T06:42:53.088Z,47.28
2023-03-19T06:45:20.227Z,46.33
2023-03-19T06:47:51.126Z,45.51
2023-03-19T06:50:18.966Z,45.05
2023-03-19T06:52:45.988Z,45.24
2023-03-19T06:55:12.694Z,45.52
2023-03-19T06:57:39.328Z,46.07
2023-03-19T07:00:06.560Z,46.15
2023-03-19T07:02:33.062Z,46.40
2023-03-19T07:04:59.642Z,46.59
2023-03-19T07:07:26.188Z,46.84
2023-03-19T07:09:52.689Z,47.27
2023-03-19T07:12:19.214Z,47.13
2023-03-19T07:14:48.834Z,47.09
2023-03-19T07:17:16.154Z,46.99
2023-03-19T07:22:23.240Z,47.64
2023-03-19T07:24:51.608Z,47.31
2023-03-19T07:27:18.132Z,47.27
2023-03-19T07:29:44.701Z,47.06
2023-03-19T07:32:11.419Z,47.58
2023-03-19T07:34:37.939Z,47.58
2023-03-19T07:37:04.499Z,47.30
2023-03-19T07:39:31.035Z,47.12
2023-03-19T07:41:57.606Z,47.36
2023-03-19T07:44:24.210Z,47.22
2023-03-19T07:46:50.966Z,47.80
2023-03-19T07:49:17.554Z,49.04
2023-03-19T07:51:44.369Z,50.16
2023-03-19T07:54:10.990Z,50.98
2023-03-19T07:56:37.620Z,50.80
2023-03-19T07:59:04.184Z,51.07
2023-03-19T08:01:30.813Z,49.80
2023-03-19T08:03:57.360Z,48.95
2023-03-19T08:06:24.140Z,48.98
2023-03-19T08:08:50.970Z,48.55
2023-03-19T08:11:17.654Z,48.73
2023-03-19T08:13:44.334Z,48.24
2023-03-19T08:16:11.622Z,48.01
2023-03-19T08:18:38.143Z,48.51
2023-03-19T08:21:05.015Z,48.55
2023-03-19T08:23:32.182Z,48.79
2023-03-19T08:25:58.742Z,48.81
2023-03-19T08:28:25.453Z,48.66
2023-03-19T08:30:52.186Z,49.27
2023-03-19T08:33:18.764Z,48.64
2023-03-19T08:35:45.380Z,48.82
2023-03-19T08:38:12.019Z,49.35
2023-03-19T08:40:38.671Z,49.20
2023-03-19T08:43:05.359Z,49.40
2023-03-19T08:45:32.002Z,49.43
2023-03-19T08:47:58.538Z,49.47
2023-03-19T08:50:25.111Z,49.92
2023-03-19T08:52:51.676Z,49.83
2023-03-19T08:55:18.347Z,49.45
2023-03-19T08:57:44.872Z,49.78
2023-03-19T09:00:12.606Z,49.57
2023-03-19T09:02:40.357Z,49.52
2023-03-19T09:05:07.372Z,49.79
2023-03-19T09:07:33.923Z,49.37
2023-03-19T09:10:00.549Z,49.43
2023-03-19T09:12:27.147Z,49.41
2023-03-19T09:14:53.720Z,49.30
2023-03-19T09:17:20.246Z,49.25
2023-03-19T09:19:46.801Z,49.26
2023-03-19T09:22:13.360Z,49.49
2023-03-19T09:24:40.780Z,49.29
2023-03-19T09:27:07.436Z,49.32
2023-03-19T09:29:39.719Z,49.45
2023-03-19T09:32:06.480Z,49.26
2023-03-19T09:34:33.124Z,49.36
2023-03-19T09:36:59.713Z,49.37
2023-03-19T09:39:26.337Z,49.15
2023-03-19T09:42:16.123Z,49.12
2023-03-19T09:44:45.408Z,49.29
2023-03-19T09:47:28.879Z,49.01
2023-03-19T09:49:57.971Z,49.16
2023-03-19T09:52:27.478Z,49.38
2023-03-19T09:54:54.065Z,49.52
2023-03-19T09:57:20.828Z,49.16
2023-03-19T09:59:47.796Z,49.12
2023-03-19T10:02:40.510Z,49.10
2023-03-19T10:05:23.048Z,49.61
2023-03-19T10:08:11.367Z,49.36
2023-03-19T10:11:09.420Z,49.27
2023-03-19T10:14:17.093Z,49.12
2023-03-19T10:16:44.214Z,49.03
2023-03-19T10:19:10.764Z,49.01
2023-03-19T10:21:45.041Z,49.25
2023-03-19T10:24:14.017Z,49.03
2023-03-19T10:26:40.628Z,48.45
2023-03-19T10:29:26.882Z,49.06
2023-03-19T10:32:00.629Z,48.67
2023-03-19T10:34:37.839Z,48.91
2023-03-19T10:37:06.470Z,49.01
2023-03-19T10:39:34.083Z,48.88
2023-03-19T10:42:25.743Z,48.93
2023-03-19T10:44:59.449Z,48.91
2023-03-19T10:47:26.422Z,48.88
2023-03-19T10:49:53.071Z,49.14
2023-03-19T10:52:30.572Z,48.96
2023-03-19T10:55:02.549Z,48.77
2023-03-19T10:57:29.470Z,49.26
2023-03-19T10:59:55.998Z,49.15
2023-03-19T11:02:27.298Z,49.12
2023-03-19T11:05:12.439Z,49.10
2023-03-19T11:07:39.118Z,49.20
2023-03-19T11:10:09.822Z,48.89
2023-03-19T11:12:37.718Z,49.04
2023-03-19T11:15:07.444Z,48.86
2023-03-19T11:17:40.369Z,48.84
2023-03-19T11:20:20.863Z,48.95
2023-03-19T11:22:48.008Z,49.04
2023-03-19T11:25:19.793Z,48.84
2023-03-19T11:27:58.560Z,48.92
2023-03-19T11:30:25.080Z,49.01
2023-03-19T11:33:03.843Z,48.77
2023-03-19T11:35:37.786Z,48.70
2023-03-19T11:38:05.067Z,48.69
2023-03-19T11:40:41.880Z,48.60
2023-03-19T11:43:33.292Z,48.68
2023-03-19T11:46:02.857Z,48.71
2023-03-19T11:49:00.593Z,48.70
2023-03-19T11:51:28.685Z,48.61
2023-03-19T11:54:10.814Z,48.83
2023-03-19T11:56:47.195Z,48.58
2023-03-19T11:59:28.909Z,48.78
2023-03-19T12:02:09.276Z,48.88
2023-03-19T12:04:45.885Z,49.24
2023-03-19T12:07:30.842Z,49.14
2023-03-19T12:10:00.403Z,49.06
2023-03-19T12:12:33.257Z,48.77
2023-03-19T12:15:09.417Z,48.86
2023-03-19T12:17:46.732Z,49.00
2023-03-19T12:21:05.984Z,48.85
2023-03-19T12:23:46.012Z,48.67
2023-03-19T12:26:19.907Z,48.75
2023-03-19T12:28:59.247Z,48.83
2023-03-19T12:31:29.496Z,48.86
2023-03-19T12:34:17.655Z,49.08
2023-03-19T12:37:01.100Z,49.18
2023-03-19T12:39:31.355Z,49.62
2023-03-19T12:41:58.246Z,49.28
2023-03-19T12:44:32.834Z,49.15
2023-03-19T12:47:28.486Z,49.19
2023-03-19T12:50:09.358Z,49.03
2023-03-19T12:52:36.850Z,49.11
2023-03-19T12:55:16.528Z,49.19
2023-03-19T12:57:49.701Z,49.10
2023-03-19T13:00:45.788Z,49.05
2023-03-19T13:03:40.451Z,49.06
2023-03-19T13:06:20.332Z,49.33
2023-03-19T13:08:49.884Z,49.13
2023-03-19T13:11:35.948Z,49.05
2023-03-19T13:14:21.267Z,49.04
2023-03-19T13:17:02.977Z,49.10
2023-03-19T13:19:40.358Z,49.02
2023-03-19T13:22:11.672Z,48.89
2023-03-19T13:24:39.037Z,49.09
2023-03-19T13:27:07.447Z,48.93
2023-03-19T13:29:36.768Z,49.15
2023-03-19T13:32:23.735Z,48.83
2023-03-19T13:34:50.310Z,48.93
2023-03-19T13:37:18.319Z,49.04
2023-03-19T13:39:45.485Z,49.05
2023-03-19T13:42:38.132Z,49.10
2023-03-19T13:45:04.933Z,49.02
2023-03-19T13:47:36.700Z,49.16
2023-03-19T13:50:06.071Z,48.98
2023-03-19T13:52:32.661Z,49.07
2023-03-19T13:55:19.457Z,49.00
2023-03-19T13:58:17.778Z,48.95
2023-03-19T14:00:45.178Z,48.88
2023-03-19T14:03:24.903Z,48.93
2023-03-19T14:05:53.160Z,48.90
2023-03-19T14:08:21.997Z,48.88
2023-03-19T14:10:50.731Z,49.10
2023-03-19T14:13:22.271Z,48.98
2023-03-19T14:15:49.779Z,49.03
2023-03-19T14:18:21.639Z,49.18
2023-03-19T14:21:32.935Z,48.98
2023-03-19T14:24:55.313Z,48.96
2023-03-19T14:27:33.240Z,48.97
2023-03-19T14:30:09.444Z,48.88
2023-03-19T14:32:40.928Z,48.90
2023-03-19T14:35:08.279Z,48.92
2023-03-19T14:37:37.718Z,48.95
2023-03-19T14:40:11.447Z,48.97
2023-03-19T14:43:02.515Z,48.99
2023-03-19T14:45:28.996Z,49.10
2023-03-19T14:48:36.629Z,49.13
2023-03-19T14:51:09.199Z,48.89
2023-03-19T14:53:44.835Z,48.92
2023-03-19T14:56:16.382Z,48.67
2023-03-19T14:58:56.342Z,49.00
2023-03-19T15:01:29.474Z,49.06
2023-03-19T15:03:59.943Z,49.01
2023-03-19T15:06:26.588Z,48.77
2023-03-19T15:08:53.134Z,48.77
2023-03-19T15:11:29.504Z,49.05
2023-03-19T15:14:11.834Z,49.01
2023-03-19T15:17:00.643Z,49.12
2023-03-19T15:19:28.901Z,49.05
2023-03-19T15:22:31.857Z,49.17
2023-03-19T15:25:12.716Z,49.10
2023-03-19T15:27:39.532Z,49.06
2023-03-19T15:30:28.862Z,49.20
2023-03-19T15:33:10.472Z,48.98
2023-03-19T15:35:41.568Z,49.07
2023-03-19T15:38:09.492Z,49.08
2023-03-19T15:40:36.923Z,49.12
2023-03-19T15:43:03.883Z,49.19
2023-03-19T15:45:33.666Z,49.23
2023-03-19T15:48:21.766Z,49.47
2023-03-19T15:50:49.360Z,49.11
2023-03-19T15:53:18.552Z,49.29
2023-03-19T15:55:45.187Z,48.90
2023-03-19T15:58:16.576Z,49.44
2023-03-19T16:00:43.130Z,49.52
2023-03-19T16:03:16.358Z,49.47
2023-03-19T16:05:42.883Z,49.58
2023-03-19T16:08:18.396Z,49.21
2023-03-19T16:10:45.818Z,49.38
2023-03-19T16:13:32.899Z,49.20
2023-03-19T16:16:06.815Z,49.39
2023-03-19T16:18:53.686Z,49.57
2023-03-19T16:21:21.890Z,49.54
2023-03-19T16:23:54.909Z,49.20
2023-03-19T16:26:25.386Z,49.53
2023-03-19T16:29:25.326Z,49.46
2023-03-19T16:32:02.397Z,49.38
2023-03-19T16:34:34.847Z,49.58
2023-03-19T16:37:01.450Z,49.45
2023-03-19T16:39:31.188Z,49.60
2023-03-19T16:42:27.340Z,49.46
2023-03-19T16:44:53.999Z,49.63
2023-03-19T16:47:21.504Z,49.80
2023-03-19T16:49:48.097Z,49.59
2023-03-19T16:52:17.124Z,49.42
2023-03-19T16:54:43.781Z,49.55
2023-03-19T16:57:11.711Z,49.64
2023-03-19T16:59:38.356Z,49.59
2023-03-19T17:02:13.773Z,49.45
2023-03-19T17:04:40.733Z,49.65
2023-03-19T17:07:07.600Z,49.76
2023-03-19T17:09:34.135Z,49.52
2023-03-19T17:12:01.381Z,49.25
2023-03-19T17:14:27.923Z,49.22
2023-03-19T17:16:55.365Z,49.25
2023-03-19T17:19:32.211Z,49.16
2023-03-19T17:21:59.251Z,49.60
2023-03-19T17:24:30.836Z,49.44
2023-03-19T17:26:58.850Z,49.75
2023-03-19T17:29:26.196Z,49.60
2023-03-19T17:31:53.570Z,49.54
2023-03-19T17:34:25.335Z,49.89
2023-03-19T17:37:02.129Z,49.62
2023-03-19T17:39:32.086Z,49.65
2023-03-19T17:41:59.036Z,49.71
2023-03-19T17:44:25.889Z,49.73
2023-03-19T17:46:53.977Z,49.51
2023-03-19T17:49:24.276Z,49.66
2023-03-19T17:51:50.966Z,49.91
2023-03-19T17:54:17.546Z,49.65
2023-03-19T17:56:44.209Z,50.01
2023-03-19T17:59:11.067Z,49.87
2023-03-19T18:01:38.206Z,50.00
2023-03-19T18:04:04.766Z,49.84
2023-03-19T18:06:33.955Z,49.82
2023-03-19T18:09:00.832Z,49.88
2023-03-19T18:11:27.302Z,50.28
2023-03-19T18:13:54.088Z,49.42
2023-03-19T18:16:28.795Z,50.00
2023-03-19T18:18:56.427Z,49.90
2023-03-19T18:21:22.917Z,49.95
2023-03-19T18:23:49.565Z,49.82
2023-03-19T18:26:19.044Z,49.68
2023-03-19T18:28:45.843Z,49.90
2023-03-19T18:31:17.463Z,49.94
2023-03-19T18:33:46.370Z,50.05
2023-03-19T18:36:15.348Z,49.98
2023-03-19T18:38:41.918Z,49.81
2023-03-19T18:41:09.566Z,50.16
2023-03-19T18:43:36.279Z,49.82
2023-03-19T18:46:02.884Z,50.14
2023-03-19T18:48:31.425Z,49.96
2023-03-19T18:50:58.166Z,50.66
2023-03-19T18:53:24.772Z,50.03
2023-03-19T18:55:51.506Z,49.95
2023-03-19T18:58:20.481Z,50.01
2023-03-19T19:00:47.135Z,50.06
2023-03-19T19:03:15.409Z,50.15
2023-03-19T19:05:42.308Z,49.96
2023-03-19T19:08:17.154Z,49.92
2023-03-19T19:10:47.578Z,49.78
2023-03-19T19:13:22.782Z,50.07
2023-03-19T19:15:49.332Z,49.96
2023-03-19T19:18:23.097Z,49.79
2023-03-19T19:20:51.233Z,50.03
2023-03-19T19:23:18.072Z,50.03
2023-03-19T19:25:45.374Z,50.04
2023-03-19T19:28:20.464Z,49.82
2023-03-19T19:30:48.112Z,49.78
2023-03-19T19:33:21.871Z,49.67
2023-03-19T19:35:48.912Z,49.94
2023-03-19T19:38:15.652Z,50.03
2023-03-19T19:40:43.227Z,49.92
2023-03-19T19:43:20.969Z,49.92
2023-03-19T19:45:55.593Z,49.81
2023-03-19T19:48:26.556Z,49.88
2023-03-19T19:50:53.913Z,49.96
2023-03-19T19:53:20.683Z,49.99
2023-03-19T19:55:47.467Z,49.74
2023-03-19T19:58:24.039Z,49.73
2023-03-19T20:01:02.782Z,49.72
2023-03-19T20:03:31.338Z,49.95
2023-03-19T20:05:58.224Z,49.80
2023-03-19T20:08:28.177Z,49.98
2023-03-19T20:10:55.105Z,49.97
2023-03-19T20:13:26.087Z,49.69
2023-03-19T20:15:53.658Z,50.02
2023-03-19T20:18:23.384Z,49.95
2023-03-19T20:20:50.070Z,49.83
2023-03-19T20:23:16.852Z,49.90
2023-03-19T20:25:44.339Z,50.14
2023-03-19T20:28:19.410Z,49.81
2023-03-19T20:30:46.107Z,49.36
2023-03-19T20:33:12.876Z,49.90
2023-03-19T20:35:39.691Z,49.91
2023-03-19T20:40:57.454Z,49.88
2023-03-19T20:43:30.850Z,49.87
2023-03-19T20:45:58.461Z,49.80
2023-03-19T20:48:25.800Z,49.77
2023-03-19T20:50:52.545Z,49.91
2023-03-19T20:53:19.282Z,50.00
2023-03-19T20:55:46.310Z,49.85
2023-03-19T20:58:34.873Z,49.63
2023-03-19T21:01:02.868Z,49.75
2023-03-19T21:03:32.753Z,49.99
2023-03-19T21:06:03.240Z,50.07
2023-03-19T21:08:32.777Z,49.91
2023-03-19T21:10:59.569Z,49.91
2023-03-19T21:13:26.530Z,49.95
2023-03-19T21:15:56.478Z,49.97
2023-03-19T21:18:23.302Z,49.80
2023-03-19T21:20:53.964Z,49.83
2023-03-19T21:23:29.930Z,49.94
2023-03-19T21:25:56.794Z,49.80
2023-03-19T21:28:30.017Z,49.93
2023-03-19T21:30:57.768Z,49.72
2023-03-19T21:33:31.651Z,49.85
2023-03-19T21:35:58.491Z,49.78
2023-03-19T21:38:25.321Z,49.69
2023-03-19T21:40:54.178Z,49.80
2023-03-19T21:43:22.720Z,49.84
2023-03-19T21:45:52.611Z,49.85
2023-03-19T21:48:34.925Z,49.95
2023-03-19T21:51:02.142Z,49.86
2023-03-19T21:53:28.829Z,49.74
2023-03-19T21:55:57.181Z,49.80
2023-03-19T21:58:29.637Z,49.81
2023-03-19T22:00:56.419Z,49.79
2023-03-19T22:03:23.321Z,49.75
2023-03-19T22:05:50.924Z,49.87
2023-03-19T22:08:20.450Z,49.86
2023-03-19T22:10:48.762Z,49.68
2023-03-19T22:13:21.598Z,49.89
2023-03-19T22:15:49.386Z,49.84
2023-03-19T22:18:16.088Z,49.82
2023-03-19T22:20:43.787Z,49.87
2023-03-19T22:23:11.462Z,49.89
2023-03-19T22:25:41.821Z,49.87
2023-03-19T22:28:22.950Z,49.92
2023-03-19T22:30:49.608Z,49.77
2023-03-19T22:33:21.476Z,50.00
2023-03-19T22:35:50.917Z,50.16
2023-03-19T22:38:18.472Z,49.73
2023-03-19T22:40:46.700Z,49.84
2023-03-19T22:43:20.990Z,49.82
2023-03-19T22:45:50.247Z,50.28
2023-03-19T22:48:17.999Z,49.98
2023-03-19T22:50:45.323Z,49.68
2023-03-19T22:53:21.464Z,49.84
2023-03-19T22:55:48.127Z,49.83
2023-03-19T22:58:23.410Z,49.84
2023-03-19T23:00:50.151Z,49.82
2023-03-19T23:03:34.931Z,49.90
2023-03-19T23:06:02.383Z,49.82
2023-03-19T23:08:28.956Z,49.95
2023-03-19T23:10:55.682Z,49.89
2023-03-19T23:13:22.312Z,49.91
2023-03-19T23:15:50.083Z,49.84
2023-03-19T23:18:26.857Z,49.88
2023-03-19T23:20:53.680Z,49.72
2023-03-19T23:23:21.084Z,49.76
2023-03-19T23:25:47.705Z,49.89
2023-03-19T23:28:18.617Z,49.85
2023-03-19T23:30:46.389Z,49.97
2023-03-19T23:33:13.229Z,50.34
2023-03-19T23:35:40.424Z,49.71
2023-03-19T23:38:07.082Z,49.90
2023-03-19T23:40:36.211Z,49.92
2023-03-19T23:43:03.092Z,49.74
2023-03-19T23:45:41.706Z,49.89
2023-03-19T23:48:13.571Z,49.89
2023-03-19T23:50:40.156Z,49.47
2023-03-19T23:53:07.112Z,49.99
2023-03-19T23:55:34.223Z,49.22
2023-03-19T23:58:01.397Z,49.99
